aviador You're here:

KGUS Decoded Metar

PERU in IN, USA
Report Time2017-08-22 21:58:00
UTC Time2017-08-22 22:29:22
Flight Rules vfr VFR
Wind300° at 16 Gusting to 21 kt
W.Decomp.*RWY 23: 4.9 kt HW 15.2 kt RCW
W.Rank300° ranks 18
Current wind is above 300° avg. (9.3)
Visibility9999 m
Phenomena:N/A
Clouds:Scattered 031 Hf
Expected CloudBase > 3,200 ft AGL from Temp-Dew spread
CeilingNone
Temp26°C (ISA +13)
Dew Point18°C (61% RH)
AAT23.0°C
QNH1012 hPa
Density Alt2,575 ft
Elevation810 ft
Report Wrong Elevation
Raw Report
KGUS 222158Z 30016G21KT 10SM SCT031 26/18 A2989 RMK AO2A SLP119
T02580184=

Extra information for KGUS:More info

Metar Taf Metar & Taf Last 4 Metars F.Rules Stats Wind Profile Meteogram Temp Stats Airport Information Weather charts Add Link Nearby VenuesMetar ALERT Operation Metar Decoded Social comments

AIRNAV info for KGUS